Repentigny, Canada
Current Conditions -  °F | °C
As of 8:00 PM on Tuesday 25 Nov 2014 (Local Time) from CYHU Reporting Station
Overcast Overcast  
Wind Chill: 31°   Ceiling: 3600
Heat Index: 41°   Visibility: 9mi
Dew Point: 30°   Wind: 24mph
Humidity: 65%   Direction: 240°WSW
Pressure: 29.94"   Gusts: 33mph
Location:  45.73°N, 73.45°W
Report Text: CYHU 260100Z AUTO 24021G29KT 9SM BKN036 BKN046 OVC085 05/M01 A2994 RMK SLP141
Loading
Personal Weather Stations






























Interactive Weather Map New forecast layout! Learn more

10-Day Weather Forecast

Advertisements
Track Severe Weather on mobile